CheckWX is a tool to help pilots better visualize weather data.  It is not intended as a substitute for an official pre-flight weather briefing.

06:13:08 UTC

KSEF METAR
Sebring Regional Airport
Sebring, Florida, USA
Current

18 mins ago

KSEF 230555Z AUTO 36003KT 10SM CLR 15/14 A3014 RMK AO2 T01520136 10229 20151
Observed
Apr-23 @ 05:55 UTC
Wind
  • 360° at 3 KTS
Visibility
10 SM
Flight Rules
VFR
Cloud Levels
  • Clear skies
Temperature
15°C / 59°F
Dewpoint
14°C / 57°F
Humidity
94%
Altimeter
30.14" Hg
Pressure
1020.62 hPa
Previous

38 mins ago

KSEF 230535Z AUTO 36004KT 10SM CLR 15/14 A3014 RMK AO2 T01550135
Observed
Apr-23 @ 05:35 UTC
Wind
  • 360° at 4 KTS
Visibility
10 SM
Flight Rules
VFR
Cloud Levels
  • Clear skies
Temperature
16°C / 61°F
Dewpoint
14°C / 57°F
Humidity
88%
Altimeter
30.14" Hg
Pressure
1020.62 hPa
Previous

58 mins ago

KSEF 230515Z AUTO 00000KT 10SM CLR 16/14 A3014 RMK AO2 T01620135
Observed
Apr-23 @ 05:15 UTC
Visibility
10 SM
Flight Rules
VFR
Cloud Levels
  • Clear skies
Temperature
16°C / 61°F
Dewpoint
14°C / 57°F
Humidity
88%
Altimeter
30.14" Hg
Pressure
1020.62 hPa